sensor_id;sensor_type;location;lat;lon;timestamp;P1;durP1;ratioP1;P2;durP2;ratioP2
8458;SDS011;4266;48.816;9.154;2023-02-15T00:01:31;42.83;;;26.70;;
8458;SDS011;4266;48.816;9.154;2023-02-15T00:03:57;45.97;;;25.13;;
8458;SDS011;4266;48.816;9.154;2023-02-15T00:06:23;49.27;;;27.10;;
8458;SDS011;4266;48.816;9.154;2023-02-15T00:08:49;48.13;;;27.87;;
8458;SDS011;4266;48.816;9.154;2023-02-15T00:11:16;43.37;;;27.47;;
8458;SDS011;4266;48.816;9.154;2023-02-15T00:13:40;43.83;;;25.47;;
8458;SDS011;4266;48.816;9.154;2023-02-15T00:16:07;44.33;;;27.23;;
8458;SDS011;4266;48.816;9.154;2023-02-15T00:18:33;43.30;;;25.60;;
8458;SDS011;4266;48.816;9.154;2023-02-15T00:20:58;46.07;;;27.67;;
8458;SDS011;4266;48.816;9.154;2023-02-15T00:23:24;45.47;;;26.60;;
8458;SDS011;4266;48.816;9.154;2023-02-15T00:25:49;37.43;;;24.73;;
8458;SDS011;4266;48.816;9.154;2023-02-15T00:28:15;41.57;;;24.53;;
8458;SDS011;4266;48.816;9.154;2023-02-15T00:30:40;38.97;;;24.27;;
8458;SDS011;4266;48.816;9.154;2023-02-15T00:33:06;42.67;;;25.77;;
8458;SDS011;4266;48.816;9.154;2023-02-15T00:35:32;42.80;;;25.80;;
8458;SDS011;4266;48.816;9.154;2023-02-15T00:37:58;40.87;;;25.40;;
8458;SDS011;4266;48.816;9.154;2023-02-15T00:40:24;40.67;;;26.13;;
8458;SDS011;4266;48.816;9.154;2023-02-15T00:42:49;44.90;;;26.93;;
8458;SDS011;4266;48.816;9.154;2023-02-15T00:45:15;48.60;;;26.30;;
8458;SDS011;4266;48.816;9.154;2023-02-15T00:47:41;39.30;;;25.13;;
8458;SDS011;4266;48.816;9.154;2023-02-15T00:50:07;40.03;;;25.80;;
8458;SDS011;4266;48.816;9.154;2023-02-15T00:52:33;41.90;;;25.90;;
8458;SDS011;4266;48.816;9.154;2023-02-15T00:54:58;45.73;;;28.00;;
8458;SDS011;4266;48.816;9.154;2023-02-15T00:57:24;47.50;;;25.30;;
8458;SDS011;4266;48.816;9.154;2023-02-15T00:59:50;42.97;;;25.13;;
8458;SDS011;4266;48.816;9.154;2023-02-15T01:02:15;41.30;;;24.87;;
8458;SDS011;4266;48.816;9.154;2023-02-15T01:04:42;46.87;;;25.93;;
8458;SDS011;4266;48.816;9.154;2023-02-15T01:07:08;45.50;;;26.67;;
8458;SDS011;4266;48.816;9.154;2023-02-15T01:09:33;48.87;;;27.47;;
8458;SDS011;4266;48.816;9.154;2023-02-15T01:11:59;48.13;;;27.10;;
8458;SDS011;4266;48.816;9.154;2023-02-15T01:14:25;43.17;;;27.10;;
8458;SDS011;4266;48.816;9.154;2023-02-15T01:16:51;49.73;;;28.00;;
8458;SDS011;4266;48.816;9.154;2023-02-15T01:19:17;44.77;;;26.07;;
8458;SDS011;4266;48.816;9.154;2023-02-15T01:21:42;50.80;;;27.83;;
8458;SDS011;4266;48.816;9.154;2023-02-15T01:24:11;48.20;;;27.33;;
8458;SDS011;4266;48.816;9.154;2023-02-15T01:26:35;47.37;;;27.30;;
8458;SDS011;4266;48.816;9.154;2023-02-15T01:29:01;45.80;;;27.53;;
8458;SDS011;4266;48.816;9.154;2023-02-15T01:31:27;41.17;;;25.57;;
8458;SDS011;4266;48.816;9.154;2023-02-15T01:33:52;49.83;;;26.30;;
8458;SDS011;4266;48.816;9.154;2023-02-15T01:36:19;43.03;;;26.73;;
8458;SDS011;4266;48.816;9.154;2023-02-15T01:38:45;42.73;;;26.30;;
8458;SDS011;4266;48.816;9.154;2023-02-15T01:41:10;49.97;;;26.20;;
8458;SDS011;4266;48.816;9.154;2023-02-15T01:43:43;45.00;;;26.43;;
8458;SDS011;4266;48.816;9.154;2023-02-15T01:46:07;46.97;;;26.67;;
8458;SDS011;4266;48.816;9.154;2023-02-15T01:48:33;39.77;;;26.23;;
8458;SDS011;4266;48.816;9.154;2023-02-15T01:50:59;43.10;;;25.87;;
8458;SDS011;4266;48.816;9.154;2023-02-15T01:53:27;47.50;;;26.57;;
8458;SDS011;4266;48.816;9.154;2023-02-15T01:55:52;40.83;;;25.77;;
8458;SDS011;4266;48.816;9.154;2023-02-15T01:58:16;45.87;;;25.50;;
8458;SDS011;4266;48.816;9.154;2023-02-15T02:00:41;47.13;;;25.53;;
8458;SDS011;4266;48.816;9.154;2023-02-15T02:03:07;45.43;;;26.10;;
8458;SDS011;4266;48.816;9.154;2023-02-15T02:05:34;44.97;;;26.97;;
8458;SDS011;4266;48.816;9.154;2023-02-15T02:07:59;42.23;;;25.27;;
8458;SDS011;4266;48.816;9.154;2023-02-15T02:10:25;40.20;;;25.03;;
8458;SDS011;4266;48.816;9.154;2023-02-15T02:12:52;41.17;;;24.63;;
8458;SDS011;4266;48.816;9.154;2023-02-15T02:15:17;45.13;;;25.50;;
8458;SDS011;4266;48.816;9.154;2023-02-15T02:20:34;38.77;;;25.10;;
8458;SDS011;4266;48.816;9.154;2023-02-15T02:23:19;38.83;;;23.47;;
8458;SDS011;4266;48.816;9.154;2023-02-15T02:26:22;37.03;;;24.77;;
8458;SDS011;4266;48.816;9.154;2023-02-15T02:28:32;39.43;;;23.67;;
8458;SDS011;4266;48.816;9.154;2023-02-15T02:33:52;39.10;;;25.30;;
8458;SDS011;4266;48.816;9.154;2023-02-15T02:39:02;45.80;;;26.63;;
8458;SDS011;4266;48.816;9.154;2023-02-15T02:41:38;44.80;;;26.37;;
8458;SDS011;4266;48.816;9.154;2023-02-15T02:44:10;45.27;;;25.73;;
8458;SDS011;4266;48.816;9.154;2023-02-15T02:46:46;49.00;;;25.80;;
8458;SDS011;4266;48.816;9.154;2023-02-15T02:49:10;43.57;;;25.13;;
8458;SDS011;4266;48.816;9.154;2023-02-15T02:51:35;38.83;;;25.57;;
8458;SDS011;4266;48.816;9.154;2023-02-15T02:54:03;41.43;;;24.70;;
8458;SDS011;4266;48.816;9.154;2023-02-15T02:56:28;36.97;;;23.90;;
8458;SDS011;4266;48.816;9.154;2023-02-15T02:59:12;39.40;;;23.80;;
8458;SDS011;4266;48.816;9.154;2023-02-15T03:01:40;47.73;;;25.17;;
8458;SDS011;4266;48.816;9.154;2023-02-15T03:04:21;39.90;;;24.83;;
8458;SDS011;4266;48.816;9.154;2023-02-15T03:06:49;37.07;;;25.27;;
8458;SDS011;4266;48.816;9.154;2023-02-15T03:09:15;39.70;;;24.70;;
8458;SDS011;4266;48.816;9.154;2023-02-15T03:11:41;39.60;;;23.97;;
8458;SDS011;4266;48.816;9.154;2023-02-15T03:14:06;42.20;;;26.10;;
8458;SDS011;4266;48.816;9.154;2023-02-15T03:16:32;40.50;;;24.13;;
8458;SDS011;4266;48.816;9.154;2023-02-15T03:19:03;46.43;;;26.07;;
8458;SDS011;4266;48.816;9.154;2023-02-15T03:21:31;52.73;;;28.63;;
8458;SDS011;4266;48.816;9.154;2023-02-15T03:24:03;45.37;;;26.83;;
8458;SDS011;4266;48.816;9.154;2023-02-15T03:26:26;52.37;;;27.73;;
8458;SDS011;4266;48.816;9.154;2023-02-15T03:28:53;63.07;;;28.23;;
8458;SDS011;4266;48.816;9.154;2023-02-15T03:31:18;61.87;;;27.90;;
8458;SDS011;4266;48.816;9.154;2023-02-15T03:33:45;61.07;;;28.93;;
8458;SDS011;4266;48.816;9.154;2023-02-15T03:36:13;58.70;;;26.73;;
8458;SDS011;4266;48.816;9.154;2023-02-15T03:38:43;57.13;;;27.93;;
8458;SDS011;4266;48.816;9.154;2023-02-15T03:41:08;63.33;;;28.63;;
8458;SDS011;4266;48.816;9.154;2023-02-15T03:43:43;54.23;;;28.23;;
8458;SDS011;4266;48.816;9.154;2023-02-15T03:46:17;51.87;;;27.07;;
8458;SDS011;4266;48.816;9.154;2023-02-15T03:48:43;60.27;;;29.80;;
8458;SDS011;4266;48.816;9.154;2023-02-15T03:51:08;68.80;;;30.33;;
8458;SDS011;4266;48.816;9.154;2023-02-15T03:53:40;59.93;;;27.10;;
8458;SDS011;4266;48.816;9.154;2023-02-15T03:56:05;127.57;;;30.87;;
8458;SDS011;4266;48.816;9.154;2023-02-15T03:58:32;58.70;;;28.17;;
8458;SDS011;4266;48.816;9.154;2023-02-15T04:01:04;64.27;;;29.20;;
8458;SDS011;4266;48.816;9.154;2023-02-15T04:03:39;71.37;;;28.30;;
8458;SDS011;4266;48.816;9.154;2023-02-15T04:06:04;68.50;;;27.80;;
8458;SDS011;4266;48.816;9.154;2023-02-15T04:08:31;70.00;;;29.83;;
8458;SDS011;4266;48.816;9.154;2023-02-15T04:11:03;77.73;;;29.37;;
8458;SDS011;4266;48.816;9.154;2023-02-15T04:13:30;75.93;;;28.83;;
8458;SDS011;4266;48.816;9.154;2023-02-15T04:15:55;53.77;;;27.90;;
8458;SDS011;4266;48.816;9.154;2023-02-15T04:18:33;67.63;;;28.33;;
8458;SDS011;4266;48.816;9.154;2023-02-15T04:21:04;103.90;;;27.90;;
8458;SDS011;4266;48.816;9.154;2023-02-15T04:23:35;73.27;;;28.00;;
8458;SDS011;4266;48.816;9.154;2023-02-15T04:26:07;86.37;;;29.53;;
8458;SDS011;4266;48.816;9.154;2023-02-15T04:28:33;100.67;;;29.27;;
8458;SDS011;4266;48.816;9.154;2023-02-15T04:30:58;75.27;;;29.13;;
8458;SDS011;4266;48.816;9.154;2023-02-15T04:33:24;75.47;;;30.07;;
8458;SDS011;4266;48.816;9.154;2023-02-15T04:35:50;75.30;;;27.70;;
8458;SDS011;4266;48.816;9.154;2023-02-15T04:38:16;100.43;;;30.57;;
8458;SDS011;4266;48.816;9.154;2023-02-15T04:40:42;121.07;;;28.23;;
8458;SDS011;4266;48.816;9.154;2023-02-15T04:43:07;147.13;;;29.73;;
8458;SDS011;4266;48.816;9.154;2023-02-15T04:45:33;203.27;;;27.57;;
8458;SDS011;4266;48.816;9.154;2023-02-15T04:47:59;169.70;;;28.90;;
8458;SDS011;4266;48.816;9.154;2023-02-15T04:50:24;183.17;;;29.40;;
8458;SDS011;4266;48.816;9.154;2023-02-15T04:52:51;120.63;;;28.57;;
8458;SDS011;4266;48.816;9.154;2023-02-15T04:55:16;247.13;;;33.53;;
8458;SDS011;4266;48.816;9.154;2023-02-15T04:57:43;113.73;;;28.37;;
8458;SDS011;4266;48.816;9.154;2023-02-15T05:00:09;89.50;;;27.47;;
8458;SDS011;4266;48.816;9.154;2023-02-15T05:02:35;151.37;;;29.97;;
8458;SDS011;4266;48.816;9.154;2023-02-15T05:05:00;126.70;;;28.93;;
8458;SDS011;4266;48.816;9.154;2023-02-15T05:07:26;161.93;;;28.60;;
8458;SDS011;4266;48.816;9.154;2023-02-15T05:09:52;89.77;;;29.60;;
8458;SDS011;4266;48.816;9.154;2023-02-15T05:12:17;75.00;;;27.17;;
8458;SDS011;4266;48.816;9.154;2023-02-15T05:14:43;57.33;;;26.00;;
8458;SDS011;4266;48.816;9.154;2023-02-15T05:17:09;77.27;;;27.47;;
8458;SDS011;4266;48.816;9.154;2023-02-15T05:19:34;149.13;;;29.53;;
8458;SDS011;4266;48.816;9.154;2023-02-15T05:22:00;55.17;;;26.97;;
8458;SDS011;4266;48.816;9.154;2023-02-15T05:24:26;52.20;;;28.40;;
8458;SDS011;4266;48.816;9.154;2023-02-15T05:26:58;50.17;;;26.27;;
8458;SDS011;4266;48.816;9.154;2023-02-15T05:29:30;52.17;;;27.40;;
8458;SDS011;4266;48.816;9.154;2023-02-15T05:31:55;64.77;;;28.50;;
8458;SDS011;4266;48.816;9.154;2023-02-15T05:34:21;48.33;;;26.73;;
8458;SDS011;4266;48.816;9.154;2023-02-15T05:36:47;44.10;;;26.50;;
8458;SDS011;4266;48.816;9.154;2023-02-15T05:39:13;53.03;;;28.50;;
8458;SDS011;4266;48.816;9.154;2023-02-15T05:41:38;77.10;;;28.57;;
8458;SDS011;4266;48.816;9.154;2023-02-15T05:44:04;79.93;;;28.77;;
8458;SDS011;4266;48.816;9.154;2023-02-15T05:46:30;73.27;;;28.33;;
8458;SDS011;4266;48.816;9.154;2023-02-15T05:48:55;54.00;;;28.60;;
8458;SDS011;4266;48.816;9.154;2023-02-15T05:51:21;80.13;;;29.97;;
8458;SDS011;4266;48.816;9.154;2023-02-15T05:53:47;75.43;;;28.80;;
8458;SDS011;4266;48.816;9.154;2023-02-15T05:56:13;80.27;;;30.10;;
8458;SDS011;4266;48.816;9.154;2023-02-15T05:58:39;103.10;;;27.87;;
8458;SDS011;4266;48.816;9.154;2023-02-15T06:01:07;52.83;;;26.93;;
8458;SDS011;4266;48.816;9.154;2023-02-15T06:03:32;45.90;;;24.40;;
8458;SDS011;4266;48.816;9.154;2023-02-15T06:05:57;66.20;;;25.37;;
8458;SDS011;4266;48.816;9.154;2023-02-15T06:08:23;46.23;;;27.30;;
8458;SDS011;4266;48.816;9.154;2023-02-15T06:10:49;64.10;;;26.17;;
8458;SDS011;4266;48.816;9.154;2023-02-15T06:13:14;161.27;;;32.33;;
8458;SDS011;4266;48.816;9.154;2023-02-15T06:15:40;49.07;;;26.63;;
8458;SDS011;4266;48.816;9.154;2023-02-15T06:18:06;53.30;;;25.83;;
8458;SDS011;4266;48.816;9.154;2023-02-15T06:20:31;79.07;;;27.33;;
8458;SDS011;4266;48.816;9.154;2023-02-15T06:22:58;145.10;;;27.97;;
8458;SDS011;4266;48.816;9.154;2023-02-15T06:25:23;118.57;;;28.63;;
8458;SDS011;4266;48.816;9.154;2023-02-15T06:27:49;108.67;;;28.20;;
8458;SDS011;4266;48.816;9.154;2023-02-15T06:30:15;221.53;;;29.73;;
8458;SDS011;4266;48.816;9.154;2023-02-15T06:32:41;178.37;;;31.63;;
8458;SDS011;4266;48.816;9.154;2023-02-15T06:35:06;122.50;;;28.63;;
8458;SDS011;4266;48.816;9.154;2023-02-15T06:37:32;97.50;;;28.67;;
8458;SDS011;4266;48.816;9.154;2023-02-15T06:39:58;57.73;;;26.10;;
8458;SDS011;4266;48.816;9.154;2023-02-15T06:42:24;138.30;;;29.53;;
8458;SDS011;4266;48.816;9.154;2023-02-15T06:44:49;63.43;;;26.57;;
8458;SDS011;4266;48.816;9.154;2023-02-15T06:47:15;54.87;;;26.13;;
8458;SDS011;4266;48.816;9.154;2023-02-15T06:49:41;69.70;;;27.60;;
8458;SDS011;4266;48.816;9.154;2023-02-15T06:52:06;106.10;;;27.00;;
8458;SDS011;4266;48.816;9.154;2023-02-15T06:54:32;96.27;;;27.60;;
8458;SDS011;4266;48.816;9.154;2023-02-15T06:56:58;71.60;;;27.33;;
8458;SDS011;4266;48.816;9.154;2023-02-15T06:59:23;60.43;;;26.87;;
8458;SDS011;4266;48.816;9.154;2023-02-15T07:01:49;129.63;;;28.77;;
8458;SDS011;4266;48.816;9.154;2023-02-15T07:04:15;96.53;;;27.80;;
8458;SDS011;4266;48.816;9.154;2023-02-15T07:06:41;118.10;;;28.73;;
8458;SDS011;4266;48.816;9.154;2023-02-15T07:09:07;95.93;;;28.37;;
8458;SDS011;4266;48.816;9.154;2023-02-15T07:11:32;154.33;;;31.93;;
8458;SDS011;4266;48.816;9.154;2023-02-15T07:14:04;137.77;;;29.50;;
8458;SDS011;4266;48.816;9.154;2023-02-15T07:16:30;66.60;;;29.70;;
8458;SDS011;4266;48.816;9.154;2023-02-15T07:18:56;74.30;;;26.37;;
8458;SDS011;4266;48.816;9.154;2023-02-15T07:21:22;74.37;;;27.97;;
8458;SDS011;4266;48.816;9.154;2023-02-15T07:23:48;54.50;;;27.23;;
8458;SDS011;4266;48.816;9.154;2023-02-15T07:26:13;50.80;;;26.67;;
8458;SDS011;4266;48.816;9.154;2023-02-15T07:28:39;52.07;;;28.00;;
8458;SDS011;4266;48.816;9.154;2023-02-15T07:31:05;63.43;;;28.30;;
8458;SDS011;4266;48.816;9.154;2023-02-15T07:33:31;61.40;;;25.30;;
8458;SDS011;4266;48.816;9.154;2023-02-15T07:35:57;52.03;;;26.03;;
8458;SDS011;4266;48.816;9.154;2023-02-15T07:38:24;71.27;;;27.23;;
8458;SDS011;4266;48.816;9.154;2023-02-15T07:40:50;53.90;;;26.27;;
8458;SDS011;4266;48.816;9.154;2023-02-15T07:43:16;49.43;;;25.43;;
8458;SDS011;4266;48.816;9.154;2023-02-15T07:45:42;44.53;;;24.40;;
8458;SDS011;4266;48.816;9.154;2023-02-15T07:48:07;73.50;;;28.23;;
8458;SDS011;4266;48.816;9.154;2023-02-15T07:50:33;54.63;;;26.23;;
8458;SDS011;4266;48.816;9.154;2023-02-15T07:53:00;61.33;;;26.23;;
8458;SDS011;4266;48.816;9.154;2023-02-15T07:55:24;46.30;;;25.57;;
8458;SDS011;4266;48.816;9.154;2023-02-15T07:57:51;50.00;;;26.73;;
8458;SDS011;4266;48.816;9.154;2023-02-15T08:00:17;41.93;;;25.07;;
8458;SDS011;4266;48.816;9.154;2023-02-15T08:02:47;47.93;;;27.97;;
8458;SDS011;4266;48.816;9.154;2023-02-15T08:05:16;49.93;;;27.57;;
8458;SDS011;4266;48.816;9.154;2023-02-15T08:07:42;40.70;;;26.13;;
8458;SDS011;4266;48.816;9.154;2023-02-15T08:10:08;92.20;;;27.60;;
8458;SDS011;4266;48.816;9.154;2023-02-15T08:12:34;40.87;;;24.70;;
8458;SDS011;4266;48.816;9.154;2023-02-15T08:15:00;45.73;;;26.23;;
8458;SDS011;4266;48.816;9.154;2023-02-15T08:17:25;41.73;;;25.50;;
8458;SDS011;4266;48.816;9.154;2023-02-15T08:19:51;39.40;;;22.93;;
8458;SDS011;4266;48.816;9.154;2023-02-15T08:22:17;33.60;;;23.20;;
8458;SDS011;4266;48.816;9.154;2023-02-15T08:24:42;35.17;;;23.63;;
8458;SDS011;4266;48.816;9.154;2023-02-15T08:27:09;33.50;;;23.03;;
8458;SDS011;4266;48.816;9.154;2023-02-15T08:29:35;38.73;;;22.70;;
8458;SDS011;4266;48.816;9.154;2023-02-15T08:32:03;29.07;;;21.97;;
8458;SDS011;4266;48.816;9.154;2023-02-15T08:34:28;30.57;;;21.13;;
8458;SDS011;4266;48.816;9.154;2023-02-15T08:36:54;34.97;;;22.17;;
8458;SDS011;4266;48.816;9.154;2023-02-15T08:39:19;31.33;;;21.23;;
8458;SDS011;4266;48.816;9.154;2023-02-15T08:41:46;35.97;;;22.87;;
8458;SDS011;4266;48.816;9.154;2023-02-15T08:44:11;29.13;;;22.50;;
8458;SDS011;4266;48.816;9.154;2023-02-15T08:46:37;29.60;;;21.93;;
8458;SDS011;4266;48.816;9.154;2023-02-15T08:49:02;32.13;;;22.93;;
8458;SDS011;4266;48.816;9.154;2023-02-15T08:51:29;33.23;;;22.03;;
8458;SDS011;4266;48.816;9.154;2023-02-15T08:53:56;30.83;;;23.50;;
8458;SDS011;4266;48.816;9.154;2023-02-15T08:56:23;30.37;;;22.00;;
8458;SDS011;4266;48.816;9.154;2023-02-15T08:58:48;28.70;;;21.43;;
8458;SDS011;4266;48.816;9.154;2023-02-15T09:01:15;30.90;;;23.27;;
8458;SDS011;4266;48.816;9.154;2023-02-15T09:03:40;37.27;;;22.50;;
8458;SDS011;4266;48.816;9.154;2023-02-15T09:06:06;41.33;;;23.23;;
8458;SDS011;4266;48.816;9.154;2023-02-15T09:08:32;41.37;;;23.47;;
8458;SDS011;4266;48.816;9.154;2023-02-15T09:11:05;30.50;;;22.83;;
8458;SDS011;4266;48.816;9.154;2023-02-15T09:13:31;35.20;;;23.87;;
8458;SDS011;4266;48.816;9.154;2023-02-15T09:16:00;35.47;;;25.00;;
8458;SDS011;4266;48.816;9.154;2023-02-15T09:18:26;35.30;;;24.10;;
8458;SDS011;4266;48.816;9.154;2023-02-15T09:20:52;34.13;;;24.40;;
8458;SDS011;4266;48.816;9.154;2023-02-15T09:23:19;33.40;;;24.90;;
8458;SDS011;4266;48.816;9.154;2023-02-15T09:25:45;30.90;;;23.73;;
8458;SDS011;4266;48.816;9.154;2023-02-15T09:28:10;47.73;;;24.60;;
8458;SDS011;4266;48.816;9.154;2023-02-15T09:30:36;41.90;;;25.43;;
8458;SDS011;4266;48.816;9.154;2023-02-15T09:33:02;37.13;;;26.40;;
8458;SDS011;4266;48.816;9.154;2023-02-15T09:35:28;34.47;;;24.73;;
8458;SDS011;4266;48.816;9.154;2023-02-15T09:37:54;38.80;;;25.90;;
8458;SDS011;4266;48.816;9.154;2023-02-15T09:40:20;38.57;;;26.80;;
8458;SDS011;4266;48.816;9.154;2023-02-15T09:42:52;42.93;;;26.70;;
8458;SDS011;4266;48.816;9.154;2023-02-15T09:45:39;34.90;;;25.17;;
8458;SDS011;4266;48.816;9.154;2023-02-15T09:48:10;33.70;;;25.23;;
8458;SDS011;4266;48.816;9.154;2023-02-15T09:50:38;30.50;;;23.37;;
8458;SDS011;4266;48.816;9.154;2023-02-15T09:53:08;29.23;;;23.30;;
8458;SDS011;4266;48.816;9.154;2023-02-15T09:58:33;27.95;;;23.70;;
8458;SDS011;4266;48.816;9.154;2023-02-15T10:01:06;28.65;;;23.55;;
8458;SDS011;4266;48.816;9.154;2023-02-15T10:03:39;27.58;;;24.08;;
8458;SDS011;4266;48.816;9.154;2023-02-15T10:06:37;29.10;;;22.33;;
8458;SDS011;4266;48.816;9.154;2023-02-15T10:09:06;26.95;;;22.50;;
8458;SDS011;4266;48.816;9.154;2023-02-15T10:11:43;25.50;;;22.77;;
8458;SDS011;4266;48.816;9.154;2023-02-15T10:14:12;25.27;;;21.60;;
8458;SDS011;4266;48.816;9.154;2023-02-15T10:16:48;24.20;;;21.62;;
8458;SDS011;4266;48.816;9.154;2023-02-15T10:22:01;24.65;;;22.00;;
8458;SDS011;4266;48.816;9.154;2023-02-15T10:24:55;24.50;;;20.75;;
8458;SDS011;4266;48.816;9.154;2023-02-15T10:27:19;28.77;;;24.75;;
8458;SDS011;4266;48.816;9.154;2023-02-15T10:29:50;26.60;;;23.27;;
8458;SDS011;4266;48.816;9.154;2023-02-15T10:32:22;27.83;;;22.75;;
8458;SDS011;4266;48.816;9.154;2023-02-15T10:34:49;27.37;;;22.45;;
8458;SDS011;4266;48.816;9.154;2023-02-15T10:37:18;23.75;;;21.17;;
8458;SDS011;4266;48.816;9.154;2023-02-15T10:39:49;25.23;;;21.80;;
8458;SDS011;4266;48.816;9.154;2023-02-15T10:42:18;26.55;;;22.10;;
8458;SDS011;4266;48.816;9.154;2023-02-15T10:45:04;24.42;;;21.87;;
8458;SDS011;4266;48.816;9.154;2023-02-15T10:50:14;23.27;;;20.95;;
8458;SDS011;4266;48.816;9.154;2023-02-15T10:55:27;22.37;;;20.00;;
8458;SDS011;4266;48.816;9.154;2023-02-15T11:00:35;24.12;;;20.02;;
8458;SDS011;4266;48.816;9.154;2023-02-15T11:03:19;25.33;;;20.98;;
8458;SDS011;4266;48.816;9.154;2023-02-15T11:05:49;23.23;;;20.80;;
8458;SDS011;4266;48.816;9.154;2023-02-15T11:08:33;25.58;;;20.62;;
8458;SDS011;4266;48.816;9.154;2023-02-15T11:10:58;22.90;;;19.77;;
8458;SDS011;4266;48.816;9.154;2023-02-15T11:13:23;23.00;;;20.55;;
8458;SDS011;4266;48.816;9.154;2023-02-15T11:15:55;25.62;;;20.88;;
8458;SDS011;4266;48.816;9.154;2023-02-15T11:18:27;22.50;;;20.20;;
8458;SDS011;4266;48.816;9.154;2023-02-15T11:20:54;24.77;;;21.92;;
8458;SDS011;4266;48.816;9.154;2023-02-15T11:23:19;26.05;;;21.92;;
8458;SDS011;4266;48.816;9.154;2023-02-15T11:25:46;25.73;;;21.25;;
8458;SDS011;4266;48.816;9.154;2023-02-15T11:28:18;23.55;;;21.33;;
8458;SDS011;4266;48.816;9.154;2023-02-15T11:30:42;23.65;;;21.15;;
8458;SDS011;4266;48.816;9.154;2023-02-15T11:33:12;23.85;;;21.62;;
8458;SDS011;4266;48.816;9.154;2023-02-15T11:35:40;23.60;;;21.40;;
8458;SDS011;4266;48.816;9.154;2023-02-15T11:38:06;25.17;;;22.55;;
8458;SDS011;4266;48.816;9.154;2023-02-15T11:40:34;24.23;;;21.70;;
8458;SDS011;4266;48.816;9.154;2023-02-15T11:43:00;24.50;;;21.92;;
8458;SDS011;4266;48.816;9.154;2023-02-15T11:45:28;25.08;;;22.13;;
8458;SDS011;4266;48.816;9.154;2023-02-15T11:47:53;27.42;;;21.73;;
8458;SDS011;4266;48.816;9.154;2023-02-15T11:50:21;24.70;;;22.30;;
8458;SDS011;4266;48.816;9.154;2023-02-15T11:52:45;24.83;;;22.08;;
8458;SDS011;4266;48.816;9.154;2023-02-15T11:55:12;28.20;;;22.87;;
8458;SDS011;4266;48.816;9.154;2023-02-15T11:57:39;24.60;;;22.15;;
8458;SDS011;4266;48.816;9.154;2023-02-15T12:00:12;26.33;;;22.77;;
8458;SDS011;4266;48.816;9.154;2023-02-15T12:02:44;27.20;;;21.85;;
8458;SDS011;4266;48.816;9.154;2023-02-15T12:05:10;27.58;;;22.80;;
8458;SDS011;4266;48.816;9.154;2023-02-15T12:07:37;23.87;;;21.40;;
8458;SDS011;4266;48.816;9.154;2023-02-15T12:10:05;24.90;;;22.40;;
8458;SDS011;4266;48.816;9.154;2023-02-15T12:12:31;25.73;;;23.10;;
8458;SDS011;4266;48.816;9.154;2023-02-15T12:14:56;28.17;;;22.37;;
8458;SDS011;4266;48.816;9.154;2023-02-15T12:17:22;23.48;;;21.17;;
8458;SDS011;4266;48.816;9.154;2023-02-15T12:19:47;24.63;;;22.10;;
8458;SDS011;4266;48.816;9.154;2023-02-15T12:22:27;24.95;;;22.25;;
8458;SDS011;4266;48.816;9.154;2023-02-15T12:24:55;23.05;;;20.98;;
8458;SDS011;4266;48.816;9.154;2023-02-15T12:27:21;28.10;;;22.00;;
8458;SDS011;4266;48.816;9.154;2023-02-15T12:29:49;26.33;;;20.80;;
8458;SDS011;4266;48.816;9.154;2023-02-15T12:32:25;24.02;;;21.02;;
8458;SDS011;4266;48.816;9.154;2023-02-15T12:34:51;23.67;;;21.17;;
8458;SDS011;4266;48.816;9.154;2023-02-15T12:37:25;23.62;;;21.23;;
8458;SDS011;4266;48.816;9.154;2023-02-15T12:39:55;24.08;;;21.50;;
8458;SDS011;4266;48.816;9.154;2023-02-15T12:42:20;23.95;;;21.55;;
8458;SDS011;4266;48.816;9.154;2023-02-15T12:47:21;24.55;;;22.25;;
8458;SDS011;4266;48.816;9.154;2023-02-15T12:50:04;24.67;;;22.17;;
8458;SDS011;4266;48.816;9.154;2023-02-15T12:52:34;23.90;;;21.58;;
8458;SDS011;4266;48.816;9.154;2023-02-15T12:55:10;24.08;;;21.67;;
8458;SDS011;4266;48.816;9.154;2023-02-15T12:57:33;24.42;;;21.83;;
8458;SDS011;4266;48.816;9.154;2023-02-15T13:00:00;24.12;;;21.62;;
8458;SDS011;4266;48.816;9.154;2023-02-15T13:02:28;24.12;;;21.62;;
8458;SDS011;4266;48.816;9.154;2023-02-15T13:07:58;26.73;;;23.12;;
8458;SDS011;4266;48.816;9.154;2023-02-15T13:10:23;26.87;;;24.25;;
8458;SDS011;4266;48.816;9.154;2023-02-15T13:12:59;26.05;;;23.42;;
8458;SDS011;4266;48.816;9.154;2023-02-15T13:15:25;28.05;;;23.77;;
8458;SDS011;4266;48.816;9.154;2023-02-15T13:17:50;26.42;;;23.87;;
8458;SDS011;4266;48.816;9.154;2023-02-15T13:20:18;27.40;;;24.42;;
8458;SDS011;4266;48.816;9.154;2023-02-15T13:22:44;30.10;;;24.55;;
8458;SDS011;4266;48.816;9.154;2023-02-15T13:25:10;31.20;;;24.33;;
8458;SDS011;4266;48.816;9.154;2023-02-15T13:27:38;27.35;;;24.52;;
8458;SDS011;4266;48.816;9.154;2023-02-15T13:30:08;28.45;;;24.87;;
8458;SDS011;4266;48.816;9.154;2023-02-15T13:32:33;27.90;;;24.87;;
8458;SDS011;4266;48.816;9.154;2023-02-15T13:34:59;26.77;;;24.05;;
8458;SDS011;4266;48.816;9.154;2023-02-15T13:37:45;34.15;;;24.90;;
8458;SDS011;4266;48.816;9.154;2023-02-15T13:40:22;28.45;;;25.50;;
8458;SDS011;4266;48.816;9.154;2023-02-15T13:42:52;27.73;;;24.70;;
8458;SDS011;4266;48.816;9.154;2023-02-15T13:48:14;27.13;;;24.37;;
8458;SDS011;4266;48.816;9.154;2023-02-15T13:55:49;30.10;;;25.98;;
8458;SDS011;4266;48.816;9.154;2023-02-15T13:58:18;31.27;;;24.92;;
8458;SDS011;4266;48.816;9.154;2023-02-15T14:06:14;29.95;;;25.58;;
8458;SDS011;4266;48.816;9.154;2023-02-15T14:08:59;28.92;;;25.90;;
8458;SDS011;4266;48.816;9.154;2023-02-15T14:14:46;28.87;;;25.05;;
8458;SDS011;4266;48.816;9.154;2023-02-15T14:16:59;28.58;;;24.83;;
8458;SDS011;4266;48.816;9.154;2023-02-15T14:19:43;30.30;;;25.40;;
8458;SDS011;4266;48.816;9.154;2023-02-15T14:22:10;33.05;;;24.80;;
8458;SDS011;4266;48.816;9.154;2023-02-15T14:24:37;28.52;;;23.90;;
8458;SDS011;4266;48.816;9.154;2023-02-15T14:27:07;34.50;;;23.98;;
8458;SDS011;4266;48.816;9.154;2023-02-15T14:29:38;28.95;;;23.90;;
8458;SDS011;4266;48.816;9.154;2023-02-15T14:32:21;28.85;;;22.98;;
8458;SDS011;4266;48.816;9.154;2023-02-15T14:34:56;25.50;;;22.23;;
8458;SDS011;4266;48.816;9.154;2023-02-15T14:37:29;30.40;;;23.58;;
8458;SDS011;4266;48.816;9.154;2023-02-15T14:40:00;29.13;;;23.23;;
8458;SDS011;4266;48.816;9.154;2023-02-15T14:42:40;27.67;;;24.27;;
8458;SDS011;4266;48.816;9.154;2023-02-15T14:45:30;27.90;;;23.27;;
8458;SDS011;4266;48.816;9.154;2023-02-15T14:48:01;30.67;;;23.90;;
8458;SDS011;4266;48.816;9.154;2023-02-15T14:53:15;25.97;;;21.87;;
8458;SDS011;4266;48.816;9.154;2023-02-15T14:55:41;27.57;;;21.73;;
8458;SDS011;4266;48.816;9.154;2023-02-15T14:58:10;25.67;;;21.63;;
8458;SDS011;4266;48.816;9.154;2023-02-15T15:00:36;27.33;;;20.13;;
8458;SDS011;4266;48.816;9.154;2023-02-15T15:02:59;22.87;;;19.10;;
8458;SDS011;4266;48.816;9.154;2023-02-15T15:05:30;25.33;;;20.37;;
8458;SDS011;4266;48.816;9.154;2023-02-15T15:07:53;24.93;;;19.93;;
8458;SDS011;4266;48.816;9.154;2023-02-15T15:13:00;26.83;;;19.80;;
8458;SDS011;4266;48.816;9.154;2023-02-15T15:15:34;26.67;;;19.13;;
8458;SDS011;4266;48.816;9.154;2023-02-15T15:18:07;29.50;;;19.03;;
8458;SDS011;4266;48.816;9.154;2023-02-15T15:20:38;23.10;;;18.97;;
8458;SDS011;4266;48.816;9.154;2023-02-15T15:23:36;23.83;;;19.80;;
8458;SDS011;4266;48.816;9.154;2023-02-15T15:26:31;26.23;;;18.47;;
8458;SDS011;4266;48.816;9.154;2023-02-15T15:28:54;27.00;;;19.10;;
8458;SDS011;4266;48.816;9.154;2023-02-15T15:31:24;22.10;;;17.27;;
8458;SDS011;4266;48.816;9.154;2023-02-15T15:34:02;25.87;;;17.80;;
8458;SDS011;4266;48.816;9.154;2023-02-15T15:36:46;27.00;;;19.17;;
8458;SDS011;4266;48.816;9.154;2023-02-15T15:39:19;21.97;;;18.20;;
8458;SDS011;4266;48.816;9.154;2023-02-15T15:42:03;23.90;;;19.03;;